sensor_id;sensor_type;location;lat;lon;timestamp;P1;durP1;ratioP1;P2;durP2;ratioP2
24090;SDS011;12272;52.426;17.100;2023-04-06T00:01:39;19.80;;;11.17;;
24090;SDS011;12272;52.426;17.100;2023-04-06T00:06:42;18.47;;;11.77;;
24090;SDS011;12272;52.426;17.100;2023-04-06T00:11:45;20.13;;;11.97;;
24090;SDS011;12272;52.426;17.100;2023-04-06T00:16:47;18.53;;;11.67;;
24090;SDS011;12272;52.426;17.100;2023-04-06T00:21:50;17.97;;;11.47;;
24090;SDS011;12272;52.426;17.100;2023-04-06T00:26:52;14.27;;;10.00;;
24090;SDS011;12272;52.426;17.100;2023-04-06T00:31:55;23.00;;;11.47;;
24090;SDS011;12272;52.426;17.100;2023-04-06T00:36:57;18.17;;;12.20;;
24090;SDS011;12272;52.426;17.100;2023-04-06T00:42:00;20.97;;;11.93;;
24090;SDS011;12272;52.426;17.100;2023-04-06T00:47:09;21.23;;;11.00;;
24090;SDS011;12272;52.426;17.100;2023-04-06T00:52:11;17.70;;;10.53;;
24090;SDS011;12272;52.426;17.100;2023-04-06T00:57:15;18.43;;;11.00;;
24090;SDS011;12272;52.426;17.100;2023-04-06T01:02:20;15.07;;;10.57;;
24090;SDS011;12272;52.426;17.100;2023-04-06T01:07:26;15.40;;;10.00;;
24090;SDS011;12272;52.426;17.100;2023-04-06T01:12:39;18.80;;;10.50;;
24090;SDS011;12272;52.426;17.100;2023-04-06T01:17:52;17.10;;;11.07;;
24090;SDS011;12272;52.426;17.100;2023-04-06T01:22:55;36.33;;;13.63;;
24090;SDS011;12272;52.426;17.100;2023-04-06T01:27:58;22.10;;;12.20;;
24090;SDS011;12272;52.426;17.100;2023-04-06T01:33:19;21.40;;;13.80;;
24090;SDS011;12272;52.426;17.100;2023-04-06T01:38:37;23.17;;;12.80;;
24090;SDS011;12272;52.426;17.100;2023-04-06T01:43:41;18.87;;;12.93;;
24090;SDS011;12272;52.426;17.100;2023-04-06T01:48:45;20.90;;;13.60;;
24090;SDS011;12272;52.426;17.100;2023-04-06T01:54:09;24.13;;;13.73;;
24090;SDS011;12272;52.426;17.100;2023-04-06T01:59:35;22.90;;;13.50;;
24090;SDS011;12272;52.426;17.100;2023-04-06T02:04:44;32.60;;;16.33;;
24090;SDS011;12272;52.426;17.100;2023-04-06T02:09:48;27.10;;;15.80;;
24090;SDS011;12272;52.426;17.100;2023-04-06T02:14:58;27.57;;;14.93;;
24090;SDS011;12272;52.426;17.100;2023-04-06T02:20:02;31.47;;;14.43;;
24090;SDS011;12272;52.426;17.100;2023-04-06T02:25:04;29.67;;;16.10;;
24090;SDS011;12272;52.426;17.100;2023-04-06T02:30:07;26.47;;;14.50;;
24090;SDS011;12272;52.426;17.100;2023-04-06T02:35:10;28.50;;;16.33;;
24090;SDS011;12272;52.426;17.100;2023-04-06T02:40:15;25.03;;;16.37;;
24090;SDS011;12272;52.426;17.100;2023-04-06T02:45:17;28.47;;;13.33;;
24090;SDS011;12272;52.426;17.100;2023-04-06T02:50:22;23.20;;;14.33;;
24090;SDS011;12272;52.426;17.100;2023-04-06T02:55:31;24.50;;;14.50;;
24090;SDS011;12272;52.426;17.100;2023-04-06T03:00:34;29.07;;;17.03;;
24090;SDS011;12272;52.426;17.100;2023-04-06T03:05:39;26.33;;;15.67;;
24090;SDS011;12272;52.426;17.100;2023-04-06T03:10:42;17.07;;;11.03;;
24090;SDS011;12272;52.426;17.100;2023-04-06T03:15:45;19.40;;;12.03;;
24090;SDS011;12272;52.426;17.100;2023-04-06T03:20:51;25.17;;;15.63;;
24090;SDS011;12272;52.426;17.100;2023-04-06T03:26:03;31.63;;;15.93;;
24090;SDS011;12272;52.426;17.100;2023-04-06T03:31:06;28.17;;;16.87;;
24090;SDS011;12272;52.426;17.100;2023-04-06T03:36:35;32.07;;;15.83;;
24090;SDS011;12272;52.426;17.100;2023-04-06T03:41:38;19.07;;;13.40;;
24090;SDS011;12272;52.426;17.100;2023-04-06T03:47:10;24.73;;;12.83;;
24090;SDS011;12272;52.426;17.100;2023-04-06T03:52:13;23.67;;;14.80;;
24090;SDS011;12272;52.426;17.100;2023-04-06T03:57:15;23.20;;;14.77;;
24090;SDS011;12272;52.426;17.100;2023-04-06T04:02:18;26.77;;;15.43;;
24090;SDS011;12272;52.426;17.100;2023-04-06T04:07:21;24.10;;;14.80;;
24090;SDS011;12272;52.426;17.100;2023-04-06T04:12:24;27.20;;;15.83;;
24090;SDS011;12272;52.426;17.100;2023-04-06T04:17:27;27.27;;;14.73;;
24090;SDS011;12272;52.426;17.100;2023-04-06T04:22:30;29.00;;;14.23;;
24090;SDS011;12272;52.426;17.100;2023-04-06T04:27:32;35.90;;;17.77;;
24090;SDS011;12272;52.426;17.100;2023-04-06T04:32:35;45.83;;;16.77;;
24090;SDS011;12272;52.426;17.100;2023-04-06T04:37:41;21.40;;;14.10;;
24090;SDS011;12272;52.426;17.100;2023-04-06T04:42:44;26.53;;;15.87;;
24090;SDS011;12272;52.426;17.100;2023-04-06T04:47:55;35.50;;;15.53;;
24090;SDS011;12272;52.426;17.100;2023-04-06T04:53:02;30.57;;;15.07;;
24090;SDS011;12272;52.426;17.100;2023-04-06T04:58:08;30.50;;;16.50;;
24090;SDS011;12272;52.426;17.100;2023-04-06T05:03:25;24.73;;;15.70;;
24090;SDS011;12272;52.426;17.100;2023-04-06T05:08:33;26.07;;;13.57;;
24090;SDS011;12272;52.426;17.100;2023-04-06T05:13:36;33.13;;;16.17;;
24090;SDS011;12272;52.426;17.100;2023-04-06T05:18:47;33.43;;;15.83;;
24090;SDS011;12272;52.426;17.100;2023-04-06T05:23:50;33.50;;;17.90;;
24090;SDS011;12272;52.426;17.100;2023-04-06T05:28:53;31.57;;;16.67;;
24090;SDS011;12272;52.426;17.100;2023-04-06T05:33:57;40.77;;;20.90;;
24090;SDS011;12272;52.426;17.100;2023-04-06T05:39:10;21.83;;;11.13;;
24090;SDS011;12272;52.426;17.100;2023-04-06T05:44:20;33.03;;;21.00;;
24090;SDS011;12272;52.426;17.100;2023-04-06T05:49:30;28.27;;;18.37;;
24090;SDS011;12272;52.426;17.100;2023-04-06T05:54:34;37.70;;;19.63;;
24090;SDS011;12272;52.426;17.100;2023-04-06T05:59:38;28.10;;;18.40;;
24090;SDS011;12272;52.426;17.100;2023-04-06T06:04:41;33.23;;;22.47;;
24090;SDS011;12272;52.426;17.100;2023-04-06T06:09:43;48.30;;;27.67;;
24090;SDS011;12272;52.426;17.100;2023-04-06T06:15:00;72.90;;;38.33;;
24090;SDS011;12272;52.426;17.100;2023-04-06T06:20:07;69.10;;;40.53;;
24090;SDS011;12272;52.426;17.100;2023-04-06T06:25:10;32.50;;;18.73;;
24090;SDS011;12272;52.426;17.100;2023-04-06T06:30:13;27.87;;;18.17;;
24090;SDS011;12272;52.426;17.100;2023-04-06T06:35:18;45.97;;;23.20;;
24090;SDS011;12272;52.426;17.100;2023-04-06T06:40:22;48.97;;;27.27;;
24090;SDS011;12272;52.426;17.100;2023-04-06T06:45:27;41.73;;;25.07;;
24090;SDS011;12272;52.426;17.100;2023-04-06T06:50:31;38.07;;;21.03;;
24090;SDS011;12272;52.426;17.100;2023-04-06T06:55:34;47.00;;;26.90;;
24090;SDS011;12272;52.426;17.100;2023-04-06T07:00:36;34.00;;;17.47;;
24090;SDS011;12272;52.426;17.100;2023-04-06T07:05:44;28.70;;;14.73;;
24090;SDS011;12272;52.426;17.100;2023-04-06T07:10:52;22.83;;;13.10;;
24090;SDS011;12272;52.426;17.100;2023-04-06T07:15:58;27.17;;;17.00;;
24090;SDS011;12272;52.426;17.100;2023-04-06T07:21:02;22.83;;;16.20;;
24090;SDS011;12272;52.426;17.100;2023-04-06T07:26:05;24.67;;;13.77;;
24090;SDS011;12272;52.426;17.100;2023-04-06T07:31:07;21.30;;;12.53;;
24090;SDS011;12272;52.426;17.100;2023-04-06T07:36:10;12.87;;;8.37;;
24090;SDS011;12272;52.426;17.100;2023-04-06T07:41:14;17.07;;;9.90;;
24090;SDS011;12272;52.426;17.100;2023-04-06T07:46:17;14.37;;;10.10;;
24090;SDS011;12272;52.426;17.100;2023-04-06T07:51:20;14.27;;;8.40;;
24090;SDS011;12272;52.426;17.100;2023-04-06T07:56:23;14.60;;;9.63;;
24090;SDS011;12272;52.426;17.100;2023-04-06T08:01:26;15.67;;;10.90;;
24090;SDS011;12272;52.426;17.100;2023-04-06T08:06:30;14.73;;;9.67;;
24090;SDS011;12272;52.426;17.100;2023-04-06T08:11:32;13.13;;;7.80;;
24090;SDS011;12272;52.426;17.100;2023-04-06T08:16:35;13.60;;;9.67;;
24090;SDS011;12272;52.426;17.100;2023-04-06T08:21:37;12.40;;;9.63;;
24090;SDS011;12272;52.426;17.100;2023-04-06T08:26:41;12.40;;;7.90;;
24090;SDS011;12272;52.426;17.100;2023-04-06T08:31:44;11.93;;;8.27;;
24090;SDS011;12272;52.426;17.100;2023-04-06T08:36:47;12.43;;;8.47;;
24090;SDS011;12272;52.426;17.100;2023-04-06T08:41:49;12.90;;;8.40;;
24090;SDS011;12272;52.426;17.100;2023-04-06T08:46:53;15.53;;;8.97;;
24090;SDS011;12272;52.426;17.100;2023-04-06T08:51:56;12.83;;;7.80;;
24090;SDS011;12272;52.426;17.100;2023-04-06T08:57:01;10.33;;;8.27;;
24090;SDS011;12272;52.426;17.100;2023-04-06T09:02:06;10.00;;;7.77;;
24090;SDS011;12272;52.426;17.100;2023-04-06T09:07:17;16.03;;;9.53;;
24090;SDS011;12272;52.426;17.100;2023-04-06T09:17:29;15.43;;;9.53;;
24090;SDS011;12272;52.426;17.100;2023-04-06T09:22:38;11.57;;;8.57;;
24090;SDS011;12272;52.426;17.100;2023-04-06T09:27:42;8.20;;;5.87;;
24090;SDS011;12272;52.426;17.100;2023-04-06T09:37:53;8.10;;;6.17;;
24090;SDS011;12272;52.426;17.100;2023-04-06T09:42:56;8.67;;;6.90;;
24090;SDS011;12272;52.426;17.100;2023-04-06T09:48:00;10.30;;;6.77;;
24090;SDS011;12272;52.426;17.100;2023-04-06T09:53:04;11.80;;;8.40;;
24090;SDS011;12272;52.426;17.100;2023-04-06T09:58:17;8.77;;;6.40;;
24090;SDS011;12272;52.426;17.100;2023-04-06T10:03:40;9.00;;;6.43;;
24090;SDS011;12272;52.426;17.100;2023-04-06T10:08:54;9.37;;;6.73;;
24090;SDS011;12272;52.426;17.100;2023-04-06T10:13:58;13.00;;;9.00;;
24090;SDS011;12272;52.426;17.100;2023-04-06T10:19:04;10.33;;;7.73;;
24090;SDS011;12272;52.426;17.100;2023-04-06T10:24:13;11.70;;;7.43;;
24090;SDS011;12272;52.426;17.100;2023-04-06T10:29:16;11.23;;;7.40;;
24090;SDS011;12272;52.426;17.100;2023-04-06T10:34:18;10.07;;;6.90;;
24090;SDS011;12272;52.426;17.100;2023-04-06T10:39:24;10.10;;;6.87;;
24090;SDS011;12272;52.426;17.100;2023-04-06T10:44:27;12.23;;;6.93;;
24090;SDS011;12272;52.426;17.100;2023-04-06T10:49:30;9.53;;;6.53;;
24090;SDS011;12272;52.426;17.100;2023-04-06T10:54:32;8.80;;;6.73;;
24090;SDS011;12272;52.426;17.100;2023-04-06T10:59:36;12.00;;;7.17;;
24090;SDS011;12272;52.426;17.100;2023-04-06T11:04:38;12.13;;;7.20;;
24090;SDS011;12272;52.426;17.100;2023-04-06T11:09:41;8.80;;;6.93;;
24090;SDS011;12272;52.426;17.100;2023-04-06T11:14:57;9.70;;;6.30;;
24090;SDS011;12272;52.426;17.100;2023-04-06T11:20:09;9.07;;;7.80;;
24090;SDS011;12272;52.426;17.100;2023-04-06T11:25:12;9.73;;;6.13;;
24090;SDS011;12272;52.426;17.100;2023-04-06T11:30:15;8.27;;;7.47;;
24090;SDS011;12272;52.426;17.100;2023-04-06T11:35:19;11.30;;;7.87;;
24090;SDS011;12272;52.426;17.100;2023-04-06T11:40:24;10.67;;;8.23;;
24090;SDS011;12272;52.426;17.100;2023-04-06T11:45:38;8.87;;;7.47;;
24090;SDS011;12272;52.426;17.100;2023-04-06T11:50:43;10.33;;;6.80;;
24090;SDS011;12272;52.426;17.100;2023-04-06T11:55:49;14.23;;;7.33;;
24090;SDS011;12272;52.426;17.100;2023-04-06T12:00:51;7.63;;;6.83;;
24090;SDS011;12272;52.426;17.100;2023-04-06T12:05:54;12.70;;;8.43;;
24090;SDS011;12272;52.426;17.100;2023-04-06T12:10:59;12.00;;;7.60;;
24090;SDS011;12272;52.426;17.100;2023-04-06T12:16:02;9.70;;;7.50;;
24090;SDS011;12272;52.426;17.100;2023-04-06T12:21:04;23.10;;;9.03;;
24090;SDS011;12272;52.426;17.100;2023-04-06T12:26:07;10.60;;;7.13;;
24090;SDS011;12272;52.426;17.100;2023-04-06T12:31:17;8.60;;;7.70;;
24090;SDS011;12272;52.426;17.100;2023-04-06T12:36:20;15.37;;;8.13;;
24090;SDS011;12272;52.426;17.100;2023-04-06T12:41:23;10.37;;;7.57;;
24090;SDS011;12272;52.426;17.100;2023-04-06T12:46:27;8.77;;;6.90;;
24090;SDS011;12272;52.426;17.100;2023-04-06T12:51:32;11.33;;;7.60;;
24090;SDS011;12272;52.426;17.100;2023-04-06T12:56:35;8.87;;;7.03;;
24090;SDS011;12272;52.426;17.100;2023-04-06T13:01:38;13.87;;;8.10;;
24090;SDS011;12272;52.426;17.100;2023-04-06T13:06:40;21.33;;;6.47;;
24090;SDS011;12272;52.426;17.100;2023-04-06T13:11:43;11.10;;;7.83;;
24090;SDS011;12272;52.426;17.100;2023-04-06T13:16:45;9.67;;;7.33;;
24090;SDS011;12272;52.426;17.100;2023-04-06T13:21:48;9.63;;;7.83;;
24090;SDS011;12272;52.426;17.100;2023-04-06T13:26:51;11.00;;;8.47;;
24090;SDS011;12272;52.426;17.100;2023-04-06T13:31:53;16.90;;;7.00;;
24090;SDS011;12272;52.426;17.100;2023-04-06T13:36:56;13.20;;;6.03;;
24090;SDS011;12272;52.426;17.100;2023-04-06T13:41:58;8.37;;;7.03;;
24090;SDS011;12272;52.426;17.100;2023-04-06T13:47:06;9.57;;;7.57;;
24090;SDS011;12272;52.426;17.100;2023-04-06T13:52:08;8.90;;;7.70;;
24090;SDS011;12272;52.426;17.100;2023-04-06T13:57:14;4.90;;;4.20;;
24090;SDS011;12272;52.426;17.100;2023-04-06T14:02:16;10.37;;;7.27;;
24090;SDS011;12272;52.426;17.100;2023-04-06T14:07:20;15.37;;;9.63;;
24090;SDS011;12272;52.426;17.100;2023-04-06T14:12:25;12.43;;;6.00;;
24090;SDS011;12272;52.426;17.100;2023-04-06T14:17:28;7.80;;;6.47;;
24090;SDS011;12272;52.426;17.100;2023-04-06T14:22:31;16.40;;;7.20;;
24090;SDS011;12272;52.426;17.100;2023-04-06T14:27:33;20.50;;;17.03;;
24090;SDS011;12272;52.426;17.100;2023-04-06T14:32:36;7.83;;;4.47;;
24090;SDS011;12272;52.426;17.100;2023-04-06T14:37:39;12.83;;;9.50;;
24090;SDS011;12272;52.426;17.100;2023-04-06T14:42:42;15.37;;;9.07;;
24090;SDS011;12272;52.426;17.100;2023-04-06T14:47:44;11.67;;;9.13;;
24090;SDS011;12272;52.426;17.100;2023-04-06T14:52:47;8.87;;;5.77;;
24090;SDS011;12272;52.426;17.100;2023-04-06T14:57:49;11.67;;;9.47;;
24090;SDS011;12272;52.426;17.100;2023-04-06T15:02:51;10.20;;;7.93;;
24090;SDS011;12272;52.426;17.100;2023-04-06T15:07:54;13.07;;;9.00;;
24090;SDS011;12272;52.426;17.100;2023-04-06T15:12:56;14.27;;;8.60;;
24090;SDS011;12272;52.426;17.100;2023-04-06T15:17:59;13.27;;;7.20;;
24090;SDS011;12272;52.426;17.100;2023-04-06T15:23:04;14.23;;;10.03;;
24090;SDS011;12272;52.426;17.100;2023-04-06T15:28:07;11.20;;;9.67;;
24090;SDS011;12272;52.426;17.100;2023-04-06T15:33:09;18.73;;;7.73;;
24090;SDS011;12272;52.426;17.100;2023-04-06T15:38:12;12.23;;;9.70;;
24090;SDS011;12272;52.426;17.100;2023-04-06T15:43:15;10.10;;;7.67;;
24090;SDS011;12272;52.426;17.100;2023-04-06T15:48:17;8.53;;;5.20;;
24090;SDS011;12272;52.426;17.100;2023-04-06T15:53:20;8.53;;;6.97;;
24090;SDS011;12272;52.426;17.100;2023-04-06T15:58:22;17.50;;;10.80;;
24090;SDS011;12272;52.426;17.100;2023-04-06T16:03:25;9.53;;;7.90;;
24090;SDS011;12272;52.426;17.100;2023-04-06T16:08:28;11.03;;;7.57;;
24090;SDS011;12272;52.426;17.100;2023-04-06T16:13:31;9.57;;;6.90;;
24090;SDS011;12272;52.426;17.100;2023-04-06T16:18:34;7.13;;;6.00;;
24090;SDS011;12272;52.426;17.100;2023-04-06T16:23:37;8.90;;;6.93;;
24090;SDS011;12272;52.426;17.100;2023-04-06T16:28:40;9.07;;;6.80;;
24090;SDS011;12272;52.426;17.100;2023-04-06T16:33:43;9.40;;;8.07;;
24090;SDS011;12272;52.426;17.100;2023-04-06T16:38:46;8.53;;;6.93;;
24090;SDS011;12272;52.426;17.100;2023-04-06T16:43:48;7.80;;;7.03;;
24090;SDS011;12272;52.426;17.100;2023-04-06T16:48:51;9.87;;;7.13;;
24090;SDS011;12272;52.426;17.100;2023-04-06T16:53:55;10.33;;;6.50;;
24090;SDS011;12272;52.426;17.100;2023-04-06T16:58:57;10.57;;;7.37;;
24090;SDS011;12272;52.426;17.100;2023-04-06T17:04:00;7.73;;;6.90;;
24090;SDS011;12272;52.426;17.100;2023-04-06T17:09:03;9.43;;;6.80;;
24090;SDS011;12272;52.426;17.100;2023-04-06T17:14:06;12.70;;;8.40;;
24090;SDS011;12272;52.426;17.100;2023-04-06T17:19:09;10.87;;;7.60;;
24090;SDS011;12272;52.426;17.100;2023-04-06T17:24:12;14.60;;;9.13;;
24090;SDS011;12272;52.426;17.100;2023-04-06T17:29:14;18.17;;;8.73;;
24090;SDS011;12272;52.426;17.100;2023-04-06T17:34:17;17.57;;;8.70;;
24090;SDS011;12272;52.426;17.100;2023-04-06T17:39:20;19.50;;;6.40;;
24090;SDS011;12272;52.426;17.100;2023-04-06T17:44:22;8.00;;;5.30;;
24090;SDS011;12272;52.426;17.100;2023-04-06T17:49:25;9.87;;;5.20;;
24090;SDS011;12272;52.426;17.100;2023-04-06T17:54:27;10.60;;;6.87;;
24090;SDS011;12272;52.426;17.100;2023-04-06T17:59:30;10.03;;;7.87;;
24090;SDS011;12272;52.426;17.100;2023-04-06T18:04:32;7.90;;;6.07;;
24090;SDS011;12272;52.426;17.100;2023-04-06T18:09:35;18.33;;;7.83;;
24090;SDS011;12272;52.426;17.100;2023-04-06T18:14:38;19.93;;;10.73;;
24090;SDS011;12272;52.426;17.100;2023-04-06T18:19:42;30.50;;;15.33;;
24090;SDS011;12272;52.426;17.100;2023-04-06T18:24:44;51.83;;;23.27;;
24090;SDS011;12272;52.426;17.100;2023-04-06T18:29:47;20.00;;;10.20;;
24090;SDS011;12272;52.426;17.100;2023-04-06T18:34:49;22.63;;;11.43;;
24090;SDS011;12272;52.426;17.100;2023-04-06T18:39:52;31.30;;;14.87;;
24090;SDS011;12272;52.426;17.100;2023-04-06T18:44:55;35.90;;;20.03;;
24090;SDS011;12272;52.426;17.100;2023-04-06T18:49:58;63.30;;;26.57;;
24090;SDS011;12272;52.426;17.100;2023-04-06T18:55:00;54.17;;;23.73;;
24090;SDS011;12272;52.426;17.100;2023-04-06T19:00:03;33.00;;;15.27;;
24090;SDS011;12272;52.426;17.100;2023-04-06T19:05:06;22.40;;;15.63;;
24090;SDS011;12272;52.426;17.100;2023-04-06T19:10:09;29.07;;;17.47;;
24090;SDS011;12272;52.426;17.100;2023-04-06T19:15:11;53.70;;;28.63;;
24090;SDS011;12272;52.426;17.100;2023-04-06T19:20:14;25.20;;;15.90;;
24090;SDS011;12272;52.426;17.100;2023-04-06T19:25:17;28.63;;;15.43;;
24090;SDS011;12272;52.426;17.100;2023-04-06T19:30:19;19.23;;;12.03;;
24090;SDS011;12272;52.426;17.100;2023-04-06T19:35:22;17.87;;;11.03;;
24090;SDS011;12272;52.426;17.100;2023-04-06T19:40:25;15.60;;;10.13;;
24090;SDS011;12272;52.426;17.100;2023-04-06T19:45:27;13.93;;;9.10;;
24090;SDS011;12272;52.426;17.100;2023-04-06T19:50:30;16.10;;;8.47;;
24090;SDS011;12272;52.426;17.100;2023-04-06T19:55:33;17.03;;;9.60;;
24090;SDS011;12272;52.426;17.100;2023-04-06T20:00:38;14.53;;;10.73;;
24090;SDS011;12272;52.426;17.100;2023-04-06T20:05:40;27.10;;;12.50;;
24090;SDS011;12272;52.426;17.100;2023-04-06T20:10:43;20.17;;;12.40;;
24090;SDS011;12272;52.426;17.100;2023-04-06T20:15:45;18.25;;;11.60;;
24090;SDS011;12272;52.426;17.100;2023-04-06T20:20:48;17.37;;;11.40;;
24090;SDS011;12272;52.426;17.100;2023-04-06T20:25:51;16.53;;;10.63;;
24090;SDS011;12272;52.426;17.100;2023-04-06T20:30:53;8.27;;;5.77;;
24090;SDS011;12272;52.426;17.100;2023-04-06T20:35:59;9.33;;;6.27;;
24090;SDS011;12272;52.426;17.100;2023-04-06T20:41:02;9.23;;;5.17;;
24090;SDS011;12272;52.426;17.100;2023-04-06T20:46:05;11.10;;;7.60;;
24090;SDS011;12272;52.426;17.100;2023-04-06T20:51:12;19.77;;;11.83;;
24090;SDS011;12272;52.426;17.100;2023-04-06T20:56:23;20.20;;;9.87;;
24090;SDS011;12272;52.426;17.100;2023-04-06T21:01:27;10.87;;;6.00;;
24090;SDS011;12272;52.426;17.100;2023-04-06T21:06:30;11.40;;;6.87;;
24090;SDS011;12272;52.426;17.100;2023-04-06T21:11:33;14.07;;;8.40;;
24090;SDS011;12272;52.426;17.100;2023-04-06T21:16:36;13.07;;;8.87;;
24090;SDS011;12272;52.426;17.100;2023-04-06T21:21:40;11.10;;;7.77;;
24090;SDS011;12272;52.426;17.100;2023-04-06T21:26:42;12.83;;;8.00;;
24090;SDS011;12272;52.426;17.100;2023-04-06T21:31:45;7.83;;;5.70;;
24090;SDS011;12272;52.426;17.100;2023-04-06T21:36:47;11.80;;;7.53;;
24090;SDS011;12272;52.426;17.100;2023-04-06T21:41:50;10.10;;;6.87;;
24090;SDS011;12272;52.426;17.100;2023-04-06T21:46:52;9.00;;;6.80;;
24090;SDS011;12272;52.426;17.100;2023-04-06T21:51:55;8.80;;;6.00;;
24090;SDS011;12272;52.426;17.100;2023-04-06T21:56:57;9.67;;;6.07;;
24090;SDS011;12272;52.426;17.100;2023-04-06T22:02:00;11.37;;;7.13;;
24090;SDS011;12272;52.426;17.100;2023-04-06T22:07:03;8.53;;;7.33;;
24090;SDS011;12272;52.426;17.100;2023-04-06T22:12:05;6.87;;;5.27;;
24090;SDS011;12272;52.426;17.100;2023-04-06T22:17:08;8.40;;;6.87;;
24090;SDS011;12272;52.426;17.100;2023-04-06T22:22:11;7.60;;;4.63;;
24090;SDS011;12272;52.426;17.100;2023-04-06T22:27:13;7.10;;;4.83;;
24090;SDS011;12272;52.426;17.100;2023-04-06T22:32:15;7.40;;;5.20;;
24090;SDS011;12272;52.426;17.100;2023-04-06T22:37:18;6.10;;;4.77;;
24090;SDS011;12272;52.426;17.100;2023-04-06T22:42:22;8.27;;;4.60;;
24090;SDS011;12272;52.426;17.100;2023-04-06T22:47:25;12.57;;;5.27;;
24090;SDS011;12272;52.426;17.100;2023-04-06T22:52:27;8.90;;;4.97;;
24090;SDS011;12272;52.426;17.100;2023-04-06T22:57:30;8.37;;;5.40;;
24090;SDS011;12272;52.426;17.100;2023-04-06T23:02:32;15.27;;;5.00;;
24090;SDS011;12272;52.426;17.100;2023-04-06T23:07:35;8.30;;;4.93;;
24090;SDS011;12272;52.426;17.100;2023-04-06T23:12:38;9.47;;;5.13;;
24090;SDS011;12272;52.426;17.100;2023-04-06T23:17:40;8.17;;;5.00;;
24090;SDS011;12272;52.426;17.100;2023-04-06T23:22:43;5.97;;;4.47;;
24090;SDS011;12272;52.426;17.100;2023-04-06T23:27:46;6.40;;;4.37;;
24090;SDS011;12272;52.426;17.100;2023-04-06T23:32:48;8.43;;;4.33;;
24090;SDS011;12272;52.426;17.100;2023-04-06T23:37:51;7.20;;;5.00;;
24090;SDS011;12272;52.426;17.100;2023-04-06T23:42:53;8.00;;;5.17;;
24090;SDS011;12272;52.426;17.100;2023-04-06T23:47:56;6.43;;;5.20;;
24090;SDS011;12272;52.426;17.100;2023-04-06T23:52:59;8.87;;;5.37;;
24090;SDS011;12272;52.426;17.100;2023-04-06T23:58:01;11.67;;;5.27;;
